Lady Goodgirl — 9H8679 — position and weather

sailwx.info

Track history (hours):
 
Tides and Currents Weather Stations Pressure Air Temp Water Temp Dewpoint Dewpoint Depression Visibility Wind Speed Wind Dir Waves Ship Positions

Lady Goodgirl

Last reported at 2016-Jul-26 11:33 UTC. Time now 2016-Jul-26 12:12 UTC.
Position N 35°54' E 014°30'.

Length 38 m; draft 2.8 m.

Type: Pleasure craft. MMSI: 256670000.

Date/timePositionNaut miles runAvg speedWind from/ knotsBaromVisibWave heightAir tempDewpointWater temp
2016-Jul-26 11:33N 35°54' E 014°30'0 0.0
2016-Jul-26 10:33N 35°54' E 014°30'6 0.3
2016-Jul-25 12:15N 35°59' E 014°35'811.8
2016-Jul-25 11:33N 36°06' E 014°41'1211.8
2016-Jul-25 10:33N 36°16' E 014°49'1211.6
2016-Jul-25 09:33N 36°25' E 014°57'8412.0
2016-Jul-25 02:33N 37°46' E 015°29'1212.4
2016-Jul-25 01:33N 37°58' E 015°32'1211.7
2016-Jul-25 00:33N 38°09' E 015°34'1111.5
2016-Jul-24 23:34N 38°20' E 015°39'1212.1
2016-Jul-24 22:33N 38°31' E 015°32'1211.6
2016-Jul-24 21:34N 38°42' E 015°26'11211.8
2016-Jul-24 12:06N 40°23' E 014°25'611.6
2016-Jul-24 11:33N 40°29' E 014°21'1211.6
2016-Jul-24 10:33N 40°40' E 014°16'10 9.4
2016-Jul-24 09:32N 40°50' E 014°14'0 0.0
2016-Jul-24 08:07N 40°50' E 014°14'0 0.0
2016-Jul-24 07:22N 40°50' E 014°14'0 0.0
2016-Jul-24 06:29N 40°50' E 014°14'0 0.0
2016-Jul-24 04:26N 40°50' E 014°14'0 0.0
2016-Jul-24 03:32N 40°50' E 014°14'0 0.0
2016-Jul-24 02:32N 40°50' E 014°14'0 0.0
2016-Jul-23 23:13N 40°50' E 014°14'4 5.3
2016-Jul-23 22:33N 40°47' E 014°12'1111.1
2016-Jul-23 21:33N 40°45' E 013°57'4 3.7
2016-Jul-23 20:33N 40°46' E 013°52'0 0.0
2016-Jul-23 19:33N 40°46' E 013°52'0 0.0
2016-Jul-23 18:33N 40°46' E 013°52'0 0.0
2016-Jul-23 17:33N 40°46' E 013°52'0 0.0
2016-Jul-23 16:33N 40°46' E 013°52'0 0.0
2016-Jul-23 15:33N 40°46' E 013°52'0 0.0
2016-Jul-23 14:33N 40°46' E 013°52'0 0.0
2016-Jul-23 13:33N 40°46' E 013°52'0 0.0
2016-Jul-23 12:33N 40°46' E 013°52'0 0.0
2016-Jul-23 11:33N 40°46' E 013°52'0 0.0
2016-Jul-23 10:33N 40°46' E 013°52'0 0.0
2016-Jul-23 09:33N 40°46' E 013°52'1 0.9
2016-Jul-23 08:33N 40°45' E 013°53'5 4.6
2016-Jul-23 07:33N 40°44' E 013°59'1211.9
2016-Jul-23 06:33N 40°36' E 014°11'3 1.6
2016-Jul-23 04:33N 40°34' E 014°14'0 0.0
2016-Jul-23 03:33N 40°34' E 014°14'0 0.0
2016-Jul-23 02:33N 40°34' E 014°14'0 0.0
2016-Jul-23 01:33N 40°34' E 014°14'0 0.0
2016-Jul-23 00:33N 40°34' E 014°14'0 0.0
2016-Jul-22 23:33N 40°34' E 014°14'0 0.0
2016-Jul-22 22:33N 40°34' E 014°14'0 0.0
2016-Jul-22 21:33N 40°34' E 014°14'0 0.0
2016-Jul-22 20:33N 40°34' E 014°14'0 0.0
2016-Jul-22 19:33N 40°34' E 014°14'0 0.0
2016-Jul-22 18:33N 40°34' E 014°14'0 0.0
2016-Jul-22 17:33N 40°34' E 014°14'0 0.0
2016-Jul-22 16:33N 40°34' E 014°14'0 0.0
2016-Jul-22 15:33N 40°34' E 014°14'2 2.4
2016-Jul-22 14:34N 40°35' E 014°12'1110.6
2016-Jul-22 13:33N 40°42' E 014°01'7 6.8
2016-Jul-22 12:33N 40°45' E 013°53'0 0.0
2016-Jul-22 11:33N 40°45' E 013°53'0 0.0
2016-Jul-22 10:33N 40°45' E 013°53'0 0.0
2016-Jul-22 09:33N 40°45' E 013°53'0 0.0
2016-Jul-22 08:33N 40°45' E 013°53'8 7.6
2016-Jul-22 07:33N 40°47' E 013°44'3511.6
2016-Jul-22 04:33N 40°54' E 012°58'0 0.2
2016-Jul-22 03:33N 40°54' E 012°58'0 0.0
2016-Jul-22 02:33N 40°54' E 012°58'0 0.0
2016-Jul-22 01:33N 40°54' E 012°58'0 0.0
2016-Jul-22 00:33N 40°54' E 012°58'0 0.0
2016-Jul-21 23:33N 40°54' E 012°58'0 0.0
2016-Jul-21 22:33N 40°54' E 012°58'0 0.0
2016-Jul-21 21:33N 40°54' E 012°58'0 0.0
2016-Jul-21 20:33N 40°54' E 012°58'0 0.0
2016-Jul-21 19:33N 40°54' E 012°58'0 0.0
2016-Jul-21 18:33N 40°54' E 012°58'0 0.0
2016-Jul-21 17:33N 40°54' E 012°58'5 4.8
2016-Jul-21 16:26N 40°55' E 012°51'0 0.0
2016-Jul-21 15:28N 40°55' E 012°51'0 0.0
2016-Jul-21 14:33N 40°55' E 012°51'0 0.0
2016-Jul-21 13:32N 40°55' E 012°51'4 4.5
2016-Jul-21 12:32N 40°53' E 012°56'2 1.9
2016-Jul-21 11:33N 40°54' E 012°58'0 0.0
2016-Jul-21 10:33N 40°54' E 012°58'0 0.0
2016-Jul-21 09:33N 40°54' E 012°58'0 0.0
2016-Jul-21 07:17N 40°54' E 012°58'0 0.0
2016-Jul-21 06:33N 40°54' E 012°58'0 0.0
2016-Jul-21 05:33N 40°54' E 012°58'0 0.0
2016-Jul-21 04:33N 40°54' E 012°58'0 0.0
2016-Jul-21 03:33N 40°54' E 012°58'0 0.0
2016-Jul-21 02:33N 40°54' E 012°58'0 0.0
2016-Jul-21 01:33N 40°54' E 012°58'0 0.0
2016-Jul-21 00:33N 40°54' E 012°58'0 0.0
2016-Jul-20 23:33N 40°54' E 012°58'0 0.0
2016-Jul-20 22:32N 40°54' E 012°58'0 0.0
2016-Jul-20 21:33N 40°54' E 012°58'0 0.0
2016-Jul-20 20:33N 40°54' E 012°58'0 0.0
2016-Jul-20 19:33N 40°54' E 012°58'0 0.0
2016-Jul-20 18:33N 40°54' E 012°58'0 0.0
2016-Jul-20 17:33N 40°54' E 012°58'0 0.0
2016-Jul-20 16:33N 40°54' E 012°58'0 0.0
2016-Jul-20 15:25N 40°54' E 012°58'0 0.0
2016-Jul-20 14:33N 40°54' E 012°58'0 0.0
2016-Jul-20 13:33N 40°54' E 012°58'0 0.0
2016-Jul-20 12:32N 40°54' E 012°58'0 0.0
2016-Jul-20 11:33N 40°54' E 012°58'0 0.0
2016-Jul-20 10:33N 40°54' E 012°58'0 0.0
2016-Jul-20 09:33N 40°54' E 012°58'0 0.0
2016-Jul-20 08:33N 40°54' E 012°58'0 0.0
2016-Jul-20 07:33N 40°54' E 012°58'2 2.2
2016-Jul-20 06:33N 40°52' E 012°56'1211.6
2016-Jul-20 05:33N 40°53' E 012°41'1511.5
2016-Jul-20 04:14N 40°54' E 012°21'128 3.3
2016-Jul-18 13:04N 41°05' E 009°32'  
Track history (hours):
 
Tides and Currents Weather Stations Pressure Air Temp Water Temp Dewpoint Dewpoint Depression Visibility Wind Speed Wind Dir Waves Ship Positions

Lady Goodgirl

Last reported at 2016-Jul-26 11:33 UTC. Time now 2016-Jul-26 12:12 UTC.
Position N 35°54' E 014°30'.

Length 38 m; draft 2.8 m.

Type: Pleasure craft. MMSI: 256670000.

Date/timePositionNaut miles runAvg speedWind from/ knotsBaromVisibWave heightAir tempDewpointWater temp
2016-Jul-26 11:33N 35°54' E 014°30'0 0.0
2016-Jul-26 10:33N 35°54' E 014°30'6 0.3
2016-Jul-25 12:15N 35°59' E 014°35'811.8
2016-Jul-25 11:33N 36°06' E 014°41'1211.8
2016-Jul-25 10:33N 36°16' E 014°49'1211.6
2016-Jul-25 09:33N 36°25' E 014°57'8412.0
2016-Jul-25 02:33N 37°46' E 015°29'1212.4
2016-Jul-25 01:33N 37°58' E 015°32'1211.7
2016-Jul-25 00:33N 38°09' E 015°34'1111.5
2016-Jul-24 23:34N 38°20' E 015°39'1212.1
2016-Jul-24 22:33N 38°31' E 015°32'1211.6
2016-Jul-24 21:34N 38°42' E 015°26'11211.8
2016-Jul-24 12:06N 40°23' E 014°25'611.6
2016-Jul-24 11:33N 40°29' E 014°21'1211.6
2016-Jul-24 10:33N 40°40' E 014°16'10 9.4
2016-Jul-24 09:32N 40°50' E 014°14'0 0.0
2016-Jul-24 08:07N 40°50' E 014°14'0 0.0
2016-Jul-24 07:22N 40°50' E 014°14'0 0.0
2016-Jul-24 06:29N 40°50' E 014°14'0 0.0
2016-Jul-24 04:26N 40°50' E 014°14'0 0.0
2016-Jul-24 03:32N 40°50' E 014°14'0 0.0
2016-Jul-24 02:32N 40°50' E 014°14'0 0.0
2016-Jul-23 23:13N 40°50' E 014°14'4 5.3
2016-Jul-23 22:33N 40°47' E 014°12'1111.1
2016-Jul-23 21:33N 40°45' E 013°57'4 3.7
2016-Jul-23 20:33N 40°46' E 013°52'0 0.0
2016-Jul-23 19:33N 40°46' E 013°52'0 0.0
2016-Jul-23 18:33N 40°46' E 013°52'0 0.0
2016-Jul-23 17:33N 40°46' E 013°52'0 0.0
2016-Jul-23 16:33N 40°46' E 013°52'0 0.0
2016-Jul-23 15:33N 40°46' E 013°52'0 0.0
2016-Jul-23 14:33N 40°46' E 013°52'0 0.0
2016-Jul-23 13:33N 40°46' E 013°52'0 0.0
2016-Jul-23 12:33N 40°46' E 013°52'0 0.0
2016-Jul-23 11:33N 40°46' E 013°52'0 0.0
2016-Jul-23 10:33N 40°46' E 013°52'0 0.0
2016-Jul-23 09:33N 40°46' E 013°52'1 0.9
2016-Jul-23 08:33N 40°45' E 013°53'5 4.6
2016-Jul-23 07:33N 40°44' E 013°59'1211.9
2016-Jul-23 06:33N 40°36' E 014°11'3 1.6
2016-Jul-23 04:33N 40°34' E 014°14'0 0.0
2016-Jul-23 03:33N 40°34' E 014°14'0 0.0
2016-Jul-23 02:33N 40°34' E 014°14'0 0.0
2016-Jul-23 01:33N 40°34' E 014°14'0 0.0
2016-Jul-23 00:33N 40°34' E 014°14'0 0.0
2016-Jul-22 23:33N 40°34' E 014°14'0 0.0
2016-Jul-22 22:33N 40°34' E 014°14'0 0.0
2016-Jul-22 21:33N 40°34' E 014°14'0 0.0
2016-Jul-22 20:33N 40°34' E 014°14'0 0.0
2016-Jul-22 19:33N 40°34' E 014°14'0 0.0
2016-Jul-22 18:33N 40°34' E 014°14'0 0.0
2016-Jul-22 17:33N 40°34' E 014°14'0 0.0
2016-Jul-22 16:33N 40°34' E 014°14'0 0.0
2016-Jul-22 15:33N 40°34' E 014°14'2 2.4
2016-Jul-22 14:34N 40°35' E 014°12'1110.6
2016-Jul-22 13:33N 40°42' E 014°01'7 6.8
2016-Jul-22 12:33N 40°45' E 013°53'0 0.0
2016-Jul-22 11:33N 40°45' E 013°53'0 0.0
2016-Jul-22 10:33N 40°45' E 013°53'0 0.0
2016-Jul-22 09:33N 40°45' E 013°53'0 0.0
2016-Jul-22 08:33N 40°45' E 013°53'8 7.6
2016-Jul-22 07:33N 40°47' E 013°44'3511.6
2016-Jul-22 04:33N 40°54' E 012°58'0 0.2
2016-Jul-22 03:33N 40°54' E 012°58'0 0.0
2016-Jul-22 02:33N 40°54' E 012°58'0 0.0
2016-Jul-22 01:33N 40°54' E 012°58'0 0.0
2016-Jul-22 00:33N 40°54' E 012°58'0 0.0
2016-Jul-21 23:33N 40°54' E 012°58'0 0.0
2016-Jul-21 22:33N 40°54' E 012°58'0 0.0
2016-Jul-21 21:33N 40°54' E 012°58'0 0.0
2016-Jul-21 20:33N 40°54' E 012°58'0 0.0
2016-Jul-21 19:33N 40°54' E 012°58'0 0.0
2016-Jul-21 18:33N 40°54' E 012°58'0 0.0
2016-Jul-21 17:33N 40°54' E 012°58'5 4.8
2016-Jul-21 16:26N 40°55' E 012°51'0 0.0
2016-Jul-21 15:28N 40°55' E 012°51'0 0.0
2016-Jul-21 14:33N 40°55' E 012°51'0 0.0
2016-Jul-21 13:32N 40°55' E 012°51'4 4.5
2016-Jul-21 12:32N 40°53' E 012°56'2 1.9
2016-Jul-21 11:33N 40°54' E 012°58'0 0.0
2016-Jul-21 10:33N 40°54' E 012°58'0 0.0
2016-Jul-21 09:33N 40°54' E 012°58'0 0.0
2016-Jul-21 07:17N 40°54' E 012°58'0 0.0
2016-Jul-21 06:33N 40°54' E 012°58'0 0.0
2016-Jul-21 05:33N 40°54' E 012°58'0 0.0
2016-Jul-21 04:33N 40°54' E 012°58'0 0.0
2016-Jul-21 03:33N 40°54' E 012°58'0 0.0
2016-Jul-21 02:33N 40°54' E 012°58'0 0.0
2016-Jul-21 01:33N 40°54' E 012°58'0 0.0
2016-Jul-21 00:33N 40°54' E 012°58'0 0.0
2016-Jul-20 23:33N 40°54' E 012°58'0 0.0
2016-Jul-20 22:32N 40°54' E 012°58'0 0.0
2016-Jul-20 21:33N 40°54' E 012°58'0 0.0
2016-Jul-20 20:33N 40°54' E 012°58'0 0.0
2016-Jul-20 19:33N 40°54' E 012°58'0 0.0
2016-Jul-20 18:33N 40°54' E 012°58'0 0.0
2016-Jul-20 17:33N 40°54' E 012°58'0 0.0
2016-Jul-20 16:33N 40°54' E 012°58'0 0.0
2016-Jul-20 15:25N 40°54' E 012°58'0 0.0
2016-Jul-20 14:33N 40°54' E 012°58'0 0.0
2016-Jul-20 13:33N 40°54' E 012°58'0 0.0
2016-Jul-20 12:32N 40°54' E 012°58'0 0.0
2016-Jul-20 11:33N 40°54' E 012°58'0 0.0
2016-Jul-20 10:33N 40°54' E 012°58'0 0.0
2016-Jul-20 09:33N 40°54' E 012°58'0 0.0
2016-Jul-20 08:33N 40°54' E 012°58'0 0.0
2016-Jul-20 07:33N 40°54' E 012°58'2 2.2
2016-Jul-20 06:33N 40°52' E 012°56'1211.6
2016-Jul-20 05:33N 40°53' E 012°41'1511.5
2016-Jul-20 04:14N 40°54' E 012°21'128 3.3
2016-Jul-18 13:04N 41°05' E 009°32'  

Dump ship's entire track history